Time;durP1;ratioP1;P1;durP2;ratioP2;P2;SDS_P1;SDS_P2;PMS_P1;PMS_P2;Temp;Humidity;BMP_temperature;BMP_pressure;BME280_temperature;BME280_humidity;BME280_pressure;Samples;Min_cycle;Max_cycle;Signal;HPM_P1;HPM_P2
2022/12/03 15:13:02;;;;;;;;;7.00;7.00;;;;;;;;113611;1214;23144;-65
2022/12/03 15:15:31;;;;;;;;;19.00;10.00;;;;;;;;114404;1206;24800;-66
2022/12/03 15:18:00;;;;;;;;;8.00;8.00;;;;;;;;114398;1205;24699;-68
2022/12/03 15:20:28;;;;;;;;;19.00;7.50;;;;;;;;114368;1210;25388;-68
2022/12/03 15:22:57;;;;;;;;;21.00;9.00;;;;;;;;114396;1212;25168;-64
2022/12/03 15:25:25;;;;;;;;;9.33;7.67;;;;;;;;114385;1214;24786;-66
2022/12/03 15:27:54;;;;;;;;;13.00;6.50;;;;;;;;114386;1204;25309;-67
2022/12/03 15:30:22;;;;;;;;;17.33;9.67;;;;;;;;114387;1206;26106;-71
2022/12/03 15:32:50;;;;;;;;;12.00;11.00;;;;;;;;114422;1209;24795;-61
2022/12/03 15:35:19;;;;;;;;;13.00;8.00;;;;;;;;114798;1202;26371;-65
2022/12/03 15:37:47;;;;;;;;;17.00;10.00;;;;;;;;114756;1200;25361;-61
2022/12/03 15:40:16;;;;;;;;;14.50;13.00;;;;;;;;114676;1203;24998;-65
2022/12/03 15:42:44;;;;;;;;;14.50;12.00;;;;;;;;114685;1201;25155;-67
2022/12/03 15:45:13;;;;;;;;;17.00;13.00;;;;;;;;114654;1206;24990;-68
2022/12/03 15:47:43;;;;;;;;;8.75;7.00;;;;;;;;114620;1203;24803;-66
2022/12/03 15:50:12;;;;;;;;;10.50;9.00;;;;;;;;114714;1203;24913;-66
2022/12/03 15:52:41;;;;;;;;;13.00;8.00;;;;;;;;114646;1209;25587;-65
2022/12/03 15:55:09;;;;;;;;;18.00;11.00;;;;;;;;114773;1206;25109;-64
2022/12/03 15:57:38;;;;;;;;;15.00;11.00;;;;;;;;114616;1209;25257;-63
2022/12/03 16:00:08;;;;;;;;;14.50;9.00;;;;;;;;114662;1203;25531;-64
2022/12/03 16:02:36;;;;;;;;;12.50;7.00;;;;;;;;114643;1199;25194;-67
2022/12/03 16:05:10;;;;;;;;;16.00;12.00;;;;;;;;114659;1200;24813;-62
2022/12/03 16:07:39;;;;;;;;;17.00;9.00;;;;;;;;114731;1200;25779;-64
2022/12/03 16:10:09;;;;;;;;;16.00;12.00;;;;;;;;114656;1206;24873;-64
2022/12/03 16:12:38;;;;;;;;;6.00;4.00;;;;;;;;114489;1204;25266;-66
2022/12/03 16:15:06;;;;;;;;;15.00;10.00;;;;;;;;114526;1206;25363;-66
2022/12/03 16:17:35;;;;;;;;;13.00;8.00;;;;;;;;115327;1206;25198;-65
2022/12/03 16:20:05;;;;;;;;;11.00;6.00;;;;;;;;114641;1211;25611;-65
2022/12/03 16:22:33;;;;;;;;;9.00;7.00;;;;;;;;114708;1203;25652;-65
2022/12/03 16:25:03;;;;;;;;;10.00;7.00;;;;;;;;114585;1202;25382;-65
2022/12/03 16:27:32;;;;;;;;;10.00;6.00;;;;;;;;114675;1203;25598;-65
2022/12/03 16:30:01;;;;;;;;;11.67;9.00;;;;;;;;114702;1206;24743;-65
2022/12/03 16:32:29;;;;;;;;;14.00;9.00;;;;;;;;114643;1207;25395;-65
2022/12/03 16:34:58;;;;;;;;;11.00;8.00;;;;;;;;114567;1211;24727;-64
2022/12/03 16:37:26;;;;;;;;;14.00;9.67;;;;;;;;114640;1203;25427;-65
2022/12/03 16:39:55;;;;;;;;;16.00;10.50;;;;;;;;114622;1203;24800;-66
2022/12/03 16:42:26;;;;;;;;;15.00;8.50;;;;;;;;114604;1206;24727;-66
2022/12/03 16:47:25;;;;;;;;;14.00;8.00;;;;;;;;114593;1206;25087;-66
2022/12/03 16:50:01;;;;;;;;;13.50;10.00;;;;;;;;114636;1205;25500;-66
2022/12/03 16:52:29;;;;;;;;;15.50;11.50;;;;;;;;114609;1206;25564;-68
2022/12/03 16:54:58;;;;;;;;;17.00;11.00;;;;;;;;114648;1206;25434;-73
2022/12/03 16:57:26;;;;;;;;;15.00;10.00;;;;;;;;114626;1203;25278;-68
2022/12/03 17:00:00;;;;;;;;;12.00;8.00;;;;;;;;114647;1203;25096;-66
2022/12/03 17:02:29;;;;;;;;;7.00;7.00;;;;;;;;114556;1209;25294;-64
2022/12/03 17:04:58;;;;;;;;;14.00;8.33;;;;;;;;114671;1207;25464;-64
2022/12/03 17:07:26;;;;;;;;;9.00;9.00;;;;;;;;114684;1203;25289;-64
2022/12/03 17:09:55;;;;;;;;;15.00;11.00;;;;;;;;114572;1203;25455;-65
2022/12/03 17:12:24;;;;;;;;;12.00;8.00;;;;;;;;114664;1203;25366;-65
2022/12/03 17:15:12;;;;;;;;;10.00;9.00;;;;;;;;114659;1196;25258;-64
2022/12/03 17:17:41;;;;;;;;;12.00;10.00;;;;;;;;114669;1203;25293;-64
2022/12/03 17:20:11;;;;;;;;;18.50;12.00;;;;;;;;114664;1206;25433;-64
2022/12/03 17:22:40;;;;;;;;;7.00;7.00;;;;;;;;114768;1206;24979;-65
2022/12/03 17:25:09;;;;;;;;;13.00;10.50;;;;;;;;114755;1209;25338;-65
2022/12/03 17:27:37;;;;;;;;;14.00;11.00;;;;;;;;114665;1205;25152;-65
2022/12/03 17:30:12;;;;;;;;;9.00;9.00;;;;;;;;114641;1211;24772;-65
2022/12/03 17:32:41;;;;;;;;;6.00;6.00;;;;;;;;114688;1206;25036;-65
2022/12/03 17:35:10;;;;;;;;;14.00;9.00;;;;;;;;114680;1206;24793;-66
2022/12/03 17:37:39;;;;;;;;;13.00;8.00;;;;;;;;114695;1202;24981;-64
2022/12/03 17:40:09;;;;;;;;;14.00;9.00;;;;;;;;114633;1206;26456;-64
2022/12/03 17:42:37;;;;;;;;;11.50;9.00;;;;;;;;114723;1201;25747;-64
2022/12/03 17:45:06;;;;;;;;;10.00;8.67;;;;;;;;114654;1203;25164;-71
2022/12/03 17:47:35;;;;;;;;;12.50;10.00;;;;;;;;114710;1197;25245;-73
2022/12/03 17:50:04;;;;;;;;;14.00;9.00;;;;;;;;114712;1206;25465;-68
2022/12/03 17:52:32;;;;;;;;;13.00;10.50;;;;;;;;114710;1211;24862;-67
2022/12/03 17:55:01;;;;;;;;;9.00;9.00;;;;;;;;114692;1206;25202;-66
2022/12/03 17:57:41;;;;;;;;;11.00;8.00;;;;;;;;114677;1209;25217;-66
2022/12/03 18:00:10;;;;;;;;;18.67;11.33;;;;;;;;114757;1203;25495;-66
2022/12/03 18:02:39;;;;;;;;;13.33;10.00;;;;;;;;114712;1211;25465;-65
2022/12/03 18:05:08;;;;;;;;;16.33;10.33;;;;;;;;114641;1203;26332;-66
2022/12/03 18:07:36;;;;;;;;;11.50;8.00;;;;;;;;114745;1201;25187;-65
2022/12/03 18:10:06;;;;;;;;;16.50;9.00;;;;;;;;114731;1209;25421;-64
2022/12/03 18:12:34;;;;;;;;;7.50;7.50;;;;;;;;114703;1206;25346;-66
2022/12/03 18:15:03;;;;;;;;;12.00;7.33;;;;;;;;114610;1207;24708;-65
2022/12/03 18:17:32;;;;;;;;;14.00;9.00;;;;;;;;114702;1202;25041;-65
2022/12/03 18:20:01;;;;;;;;;12.67;10.00;;;;;;;;114599;1203;25164;-66
2022/12/03 18:22:30;;;;;;;;;12.00;9.00;;;;;;;;114674;1203;25518;-66
2022/12/03 18:24:58;;;;;;;;;11.00;9.50;;;;;;;;114706;1203;25236;-65
2022/12/03 18:27:27;;;;;;;;;13.00;13.00;;;;;;;;114727;1206;25684;-65
2022/12/03 18:29:55;;;;;;;;;12.50;7.50;;;;;;;;114682;1209;25425;-64
2022/12/03 18:32:24;;;;;;;;;12.00;11.00;;;;;;;;114691;1209;25108;-65
2022/12/03 18:34:57;;;;;;;;;11.00;7.00;;;;;;;;114660;1207;24959;-66
2022/12/03 18:37:26;;;;;;;;;11.00;9.00;;;;;;;;114684;1210;25832;-66
2022/12/03 18:39:55;;;;;;;;;11.00;10.00;;;;;;;;114636;1207;25534;-66
2022/12/03 18:42:25;;;;;;;;;8.00;8.00;;;;;;;;114666;1205;25521;-66
2022/12/03 18:44:55;;;;;;;;;12.00;7.33;;;;;;;;114712;1206;25222;-63
2022/12/03 18:47:26;;;;;;;;;10.50;10.00;;;;;;;;114687;1206;25547;-63
2022/12/03 18:49:55;;;;;;;;;18.00;8.00;;;;;;;;114602;1206;24983;-63
2022/12/03 18:52:24;;;;;;;;;7.00;6.00;;;;;;;;114714;1206;24699;-62
2022/12/03 18:54:54;;;;;;;;;8.00;5.00;;;;;;;;114747;1201;25347;-65
2022/12/03 18:57:22;;;;;;;;;12.00;9.00;;;;;;;;114660;1206;25472;-63
2022/12/03 18:59:51;;;;;;;;;6.00;5.00;;;;;;;;114669;1205;24801;-63
2022/12/03 19:02:20;;;;;;;;;9.00;8.00;;;;;;;;114727;1207;25040;-62
2022/12/03 19:05:09;;;;;;;;;9.50;6.50;;;;;;;;114724;1203;25237;-62
2022/12/03 19:07:37;;;;;;;;;9.00;6.00;;;;;;;;114702;1211;25537;-61
2022/12/03 19:10:07;;;;;;;;;12.50;9.00;;;;;;;;114728;1203;25537;-61
2022/12/03 19:12:36;;;;;;;;;9.67;6.00;;;;;;;;114713;1211;24807;-61
2022/12/03 19:15:05;;;;;;;;;7.00;7.00;;;;;;;;114744;1203;25206;-60
2022/12/03 19:17:34;;;;;;;;;9.33;7.00;;;;;;;;114751;1203;25155;-60
2022/12/03 19:20:04;;;;;;;;;9.50;8.50;;;;;;;;114775;1209;25029;-62
2022/12/03 19:22:32;;;;;;;;;9.00;7.00;;;;;;;;114770;1206;25590;-61
2022/12/03 19:25:01;;;;;;;;;7.00;7.00;;;;;;;;114727;1206;24842;-62
2022/12/03 19:27:30;;;;;;;;;6.50;5.50;;;;;;;;114661;1211;24803;-63
2022/12/03 19:29:58;;;;;;;;;8.00;8.00;;;;;;;;114702;1204;25308;-63
2022/12/03 19:32:27;;;;;;;;;9.00;7.00;;;;;;;;114696;1206;25089;-62
2022/12/03 19:34:55;;;;;;;;;12.00;9.00;;;;;;;;114631;1200;25041;-61
2022/12/03 19:37:24;;;;;;;;;9.00;8.00;;;;;;;;114746;1206;25028;-63
2022/12/03 19:39:52;;;;;;;;;6.00;5.00;;;;;;;;114686;1211;24907;-63
2022/12/03 19:42:22;;;;;;;;;11.00;11.00;;;;;;;;114682;1207;25080;-62
2022/12/03 19:44:50;;;;;;;;;11.50;9.00;;;;;;;;114644;1202;25774;-64
2022/12/03 19:47:19;;;;;;;;;10.00;9.50;;;;;;;;114726;1206;25343;-64
2022/12/03 19:49:47;;;;;;;;;14.00;11.50;;;;;;;;114695;1203;25216;-60
2022/12/03 19:52:16;;;;;;;;;13.50;9.00;;;;;;;;114638;1207;25008;-60
2022/12/03 19:54:44;;;;;;;;;8.50;6.50;;;;;;;;114754;1206;25020;-74
2022/12/03 19:57:12;;;;;;;;;10.00;6.00;;;;;;;;114843;1202;25537;-62
2022/12/03 19:59:49;;;;;;;;;7.00;7.00;;;;;;;;114864;1203;25214;-62
2022/12/03 20:02:18;;;;;;;;;12.00;10.00;;;;;;;;114834;1198;26109;-65
2022/12/03 20:04:47;;;;;;;;;11.00;7.00;;;;;;;;114769;1201;24941;-63
2022/12/03 20:07:16;;;;;;;;;8.33;5.67;;;;;;;;114833;1200;25252;-66
2022/12/03 20:09:44;;;;;;;;;9.00;6.00;;;;;;;;114822;1208;24815;-64
2022/12/03 20:12:12;;;;;;;;;9.00;6.00;;;;;;;;114741;1206;25155;-63
2022/12/03 20:14:41;;;;;;;;;9.50;7.00;;;;;;;;114812;1208;25519;-61
2022/12/03 20:17:10;;;;;;;;;13.00;7.00;;;;;;;;114814;1207;25528;-61
2022/12/03 20:19:38;;;;;;;;;14.00;8.00;;;;;;;;114831;1208;25169;-60
2022/12/03 20:22:07;;;;;;;;;9.00;7.00;;;;;;;;114667;1203;25418;-66
2022/12/03 20:24:35;;;;;;;;;10.50;8.50;;;;;;;;114810;1206;25159;-65
2022/12/03 20:27:04;;;;;;;;;7.00;7.00;;;;;;;;114658;1197;25597;-65
2022/12/03 20:29:32;;;;;;;;;6.00;6.00;;;;;;;;114826;1199;25528;-65
2022/12/03 20:32:00;;;;;;;;;7.00;6.00;;;;;;;;114704;1206;25328;-61
2022/12/03 20:34:29;;;;;;;;;11.00;7.33;;;;;;;;114898;1203;25585;-59
2022/12/03 20:36:58;;;;;;;;;17.00;9.00;;;;;;;;114738;1203;24706;-60
2022/12/03 20:39:26;;;;;;;;;11.00;8.50;;;;;;;;116706;1207;25291;-60
2022/12/03 20:41:54;;;;;;;;;9.00;9.00;;;;;;;;116777;1206;25074;-63
2022/12/03 20:44:22;;;;;;;;;9.00;7.00;;;;;;;;115215;1200;25474;-63
2022/12/03 20:46:51;;;;;;;;;10.00;8.00;;;;;;;;114740;1206;26397;-64
2022/12/03 20:49:19;;;;;;;;;12.33;6.00;;;;;;;;114819;1206;25435;-61
2022/12/03 20:51:49;;;;;;;;;13.00;7.00;;;;;;;;114799;1197;25121;-63
2022/12/03 20:54:17;;;;;;;;;13.00;8.00;;;;;;;;114794;1200;25632;-63
2022/12/03 20:56:46;;;;;;;;;6.50;5.00;;;;;;;;114802;1199;25431;-63
2022/12/03 20:59:15;;;;;;;;;11.00;7.00;;;;;;;;114843;1200;25584;-63
2022/12/03 21:01:44;;;;;;;;;9.50;7.00;;;;;;;;114856;1203;25000;-74
2022/12/03 21:04:13;;;;;;;;;9.50;7.50;;;;;;;;114838;1200;24692;-73
2022/12/03 21:06:41;;;;;;;;;10.00;9.33;;;;;;;;114834;1202;24922;-64
2022/12/03 21:09:11;;;;;;;;;12.00;9.00;;;;;;;;114835;1193;24954;-63
2022/12/03 21:11:41;;;;;;;;;10.00;7.00;;;;;;;;114795;1208;24873;-69
2022/12/03 21:14:10;;;;;;;;;12.00;9.50;;;;;;;;114739;1203;25609;-62
2022/12/03 21:16:39;;;;;;;;;12.00;8.00;;;;;;;;114936;1196;25109;-75
2022/12/03 21:19:27;;;;;;;;;20.67;9.00;;;;;;;;114852;1203;25463;-64
2022/12/03 21:21:55;;;;;;;;;15.00;8.00;;;;;;;;114881;1204;25541;-66
2022/12/03 21:24:24;;;;;;;;;9.00;7.00;;;;;;;;114787;1200;25409;-71
2022/12/03 21:26:52;;;;;;;;;10.33;7.33;;;;;;;;114863;1199;25108;-71
2022/12/03 21:29:21;;;;;;;;;10.00;8.00;;;;;;;;114778;1208;25240;-66
2022/12/03 21:31:50;;;;;;;;;4.00;4.00;;;;;;;;114815;1203;25267;-68
2022/12/03 21:34:18;;;;;;;;;16.00;11.00;;;;;;;;114862;1208;25522;-72
2022/12/03 21:36:46;;;;;;;;;12.00;8.50;;;;;;;;114855;1200;25037;-69
2022/12/03 21:39:15;;;;;;;;;12.00;8.00;;;;;;;;114856;1208;25249;-69
2022/12/03 21:41:43;;;;;;;;;11.00;8.67;;;;;;;;114738;1203;25625;-68
2022/12/03 21:44:32;;;;;;;;;11.00;10.00;;;;;;;;114881;1208;25163;-68
2022/12/03 21:47:00;;;;;;;;;13.00;8.00;;;;;;;;114788;1206;25218;-68
2022/12/03 21:49:40;;;;;;;;;7.50;7.50;;;;;;;;114838;1203;24706;-67
2022/12/03 21:52:09;;;;;;;;;12.00;8.50;;;;;;;;114771;1208;25048;-68
2022/12/03 21:54:38;;;;;;;;;12.00;9.00;;;;;;;;114855;1204;25461;-68
2022/12/03 21:57:06;;;;;;;;;7.00;5.00;;;;;;;;114852;1206;25213;-68
2022/12/03 21:59:34;;;;;;;;;8.00;7.00;;;;;;;;114809;1203;25620;-68
2022/12/03 22:02:03;;;;;;;;;9.00;7.00;;;;;;;;114861;1208;25323;-68
2022/12/03 22:04:32;;;;;;;;;8.00;7.00;;;;;;;;114784;1208;25208;-68
2022/12/03 22:07:00;;;;;;;;;12.00;9.00;;;;;;;;114860;1207;25011;-68
2022/12/03 22:09:30;;;;;;;;;9.00;5.00;;;;;;;;114821;1206;25572;-67
2022/12/03 22:11:59;;;;;;;;;8.00;8.00;;;;;;;;114856;1205;25446;-68
2022/12/03 22:14:29;;;;;;;;;10.50;7.50;;;;;;;;114810;1202;24696;-67
2022/12/03 22:16:57;;;;;;;;;10.33;8.00;;;;;;;;114814;1199;26277;-67
2022/12/03 22:19:28;;;;;;;;;11.00;6.00;;;;;;;;114804;1200;25542;-67
2022/12/03 22:21:57;;;;;;;;;9.75;8.00;;;;;;;;114776;1208;25558;-67
2022/12/03 22:24:25;;;;;;;;;9.00;6.00;;;;;;;;114820;1208;24806;-68
2022/12/03 22:26:54;;;;;;;;;8.67;6.67;;;;;;;;114787;1206;25661;-68
2022/12/03 22:29:22;;;;;;;;;10.00;7.50;;;;;;;;114885;1203;25253;-66
2022/12/03 22:31:51;;;;;;;;;2.50;2.00;;;;;;;;114832;1206;25421;-68
2022/12/03 22:34:19;;;;;;;;;13.00;6.00;;;;;;;;114880;1200;25044;-67
2022/12/03 22:36:48;;;;;;;;;6.00;5.50;;;;;;;;114856;1208;25051;-67
2022/12/03 22:39:16;;;;;;;;;8.00;7.00;;;;;;;;114836;1206;25606;-67
2022/12/03 22:41:45;;;;;;;;;7.67;6.67;;;;;;;;114805;1206;26305;-68
2022/12/03 22:44:14;;;;;;;;;9.00;6.00;;;;;;;;114840;1208;25552;-69
2022/12/03 22:46:42;;;;;;;;;9.00;6.67;;;;;;;;114887;1197;25153;-68
2022/12/03 22:49:11;;;;;;;;;9.00;6.67;;;;;;;;114831;1199;24865;-66
2022/12/03 22:51:44;;;;;;;;;8.00;7.00;;;;;;;;114801;1208;24748;-67
2022/12/03 22:54:12;;;;;;;;;10.50;7.50;;;;;;;;114811;1196;24795;-67
2022/12/03 22:56:40;;;;;;;;;7.50;5.50;;;;;;;;114824;1203;24749;-69
2022/12/03 22:59:09;;;;;;;;;8.50;6.00;;;;;;;;114858;1198;25400;-69
2022/12/03 23:01:39;;;;;;;;;9.00;5.00;;;;;;;;114842;1206;25051;-69
2022/12/03 23:04:09;;;;;;;;;8.00;6.00;;;;;;;;114896;1201;25022;-68
2022/12/03 23:06:38;;;;;;;;;7.00;7.00;;;;;;;;114857;1205;25057;-68
2022/12/03 23:09:06;;;;;;;;;8.50;7.00;;;;;;;;114863;1206;25726;-68
2022/12/03 23:11:36;;;;;;;;;12.50;9.00;;;;;;;;114836;1201;25403;-68
2022/12/03 23:14:04;;;;;;;;;7.50;7.00;;;;;;;;114914;1204;25102;-68
2022/12/03 23:16:33;;;;;;;;;10.00;8.00;;;;;;;;114899;1202;25412;-66
2022/12/03 23:19:02;;;;;;;;;8.00;5.67;;;;;;;;114804;1205;25159;-66
2022/12/03 23:21:34;;;;;;;;;5.00;5.00;;;;;;;;114881;1200;24787;-66
2022/12/03 23:24:04;;;;;;;;;11.50;6.50;;;;;;;;114843;1207;25532;-66
2022/12/03 23:26:34;;;;;;;;;7.00;6.00;;;;;;;;114864;1208;25352;-66
2022/12/03 23:29:04;;;;;;;;;7.67;6.33;;;;;;;;114785;1201;25266;-68
2022/12/03 23:31:33;;;;;;;;;4.00;3.33;;;;;;;;114867;1208;25371;-69
2022/12/03 23:34:02;;;;;;;;;9.00;7.00;;;;;;;;114835;1208;25444;-70
2022/12/03 23:36:32;;;;;;;;;10.67;6.67;;;;;;;;114825;1208;25452;-71
2022/12/03 23:39:00;;;;;;;;;6.50;6.50;;;;;;;;114861;1203;25092;-69
2022/12/03 23:41:29;;;;;;;;;9.00;5.00;;;;;;;;114738;1203;25633;-70
2022/12/03 23:43:57;;;;;;;;;9.67;7.00;;;;;;;;114806;1206;25482;-71
2022/12/03 23:46:26;;;;;;;;;7.00;7.00;;;;;;;;114830;1200;24742;-71
2022/12/03 23:48:57;;;;;;;;;7.00;7.00;;;;;;;;114863;1206;25083;-70
2022/12/03 23:51:25;;;;;;;;;7.00;5.00;;;;;;;;114852;1200;26702;-71
2022/12/03 23:53:54;;;;;;;;;6.00;6.00;;;;;;;;114862;1199;25662;-70
2022/12/03 23:56:28;;;;;;;;;6.67;6.67;;;;;;;;114831;1200;24698;-71
2022/12/03 23:58:57;;;;;;;;;5.00;5.00;;;;;;;;114847;1200;24979;-71
